sensor_id;sensor_type;location;lat;lon;timestamp;P1;durP1;ratioP1;P2;durP2;ratioP2
26113;SDS011;13966;48.828;9.064;2023-08-06T00:00:47;5.53;;;4.40;;
26113;SDS011;13966;48.828;9.064;2023-08-06T00:03:13;7.15;;;4.50;;
26113;SDS011;13966;48.828;9.064;2023-08-06T00:05:42;5.72;;;4.85;;
26113;SDS011;13966;48.828;9.064;2023-08-06T00:08:08;7.53;;;5.03;;
26113;SDS011;13966;48.828;9.064;2023-08-06T00:10:34;6.20;;;4.78;;
26113;SDS011;13966;48.828;9.064;2023-08-06T00:13:00;7.82;;;5.53;;
26113;SDS011;13966;48.828;9.064;2023-08-06T00:15:26;8.50;;;5.57;;
26113;SDS011;13966;48.828;9.064;2023-08-06T00:17:52;7.03;;;5.63;;
26113;SDS011;13966;48.828;9.064;2023-08-06T00:20:18;9.07;;;5.28;;
26113;SDS011;13966;48.828;9.064;2023-08-06T00:22:45;9.73;;;4.97;;
26113;SDS011;13966;48.828;9.064;2023-08-06T00:25:11;8.18;;;4.97;;
26113;SDS011;13966;48.828;9.064;2023-08-06T00:27:37;9.57;;;5.15;;
26113;SDS011;13966;48.828;9.064;2023-08-06T00:30:03;7.40;;;4.57;;
26113;SDS011;13966;48.828;9.064;2023-08-06T00:32:29;5.65;;;4.53;;
26113;SDS011;13966;48.828;9.064;2023-08-06T00:34:55;6.43;;;4.78;;
26113;SDS011;13966;48.828;9.064;2023-08-06T00:37:21;5.00;;;4.50;;
26113;SDS011;13966;48.828;9.064;2023-08-06T00:39:47;6.30;;;4.68;;
26113;SDS011;13966;48.828;9.064;2023-08-06T00:42:13;6.35;;;4.03;;
26113;SDS011;13966;48.828;9.064;2023-08-06T00:44:41;7.22;;;4.05;;
26113;SDS011;13966;48.828;9.064;2023-08-06T00:47:07;5.88;;;4.22;;
26113;SDS011;13966;48.828;9.064;2023-08-06T00:49:34;6.97;;;4.78;;
26113;SDS011;13966;48.828;9.064;2023-08-06T00:52:00;5.55;;;4.38;;
26113;SDS011;13966;48.828;9.064;2023-08-06T00:54:27;7.03;;;4.18;;
26113;SDS011;13966;48.828;9.064;2023-08-06T00:56:53;6.57;;;4.13;;
26113;SDS011;13966;48.828;9.064;2023-08-06T00:59:19;7.97;;;3.80;;
26113;SDS011;13966;48.828;9.064;2023-08-06T01:01:45;5.97;;;4.70;;
26113;SDS011;13966;48.828;9.064;2023-08-06T01:04:11;6.53;;;4.45;;
26113;SDS011;13966;48.828;9.064;2023-08-06T01:09:07;5.00;;;3.78;;
26113;SDS011;13966;48.828;9.064;2023-08-06T01:11:40;8.57;;;4.70;;
26113;SDS011;13966;48.828;9.064;2023-08-06T01:14:15;4.07;;;3.47;;
26113;SDS011;13966;48.828;9.064;2023-08-06T01:16:45;5.10;;;3.85;;
26113;SDS011;13966;48.828;9.064;2023-08-06T01:19:17;6.03;;;4.20;;
26113;SDS011;13966;48.828;9.064;2023-08-06T01:21:43;7.93;;;4.47;;
26113;SDS011;13966;48.828;9.064;2023-08-06T01:24:09;10.38;;;4.10;;
26113;SDS011;13966;48.828;9.064;2023-08-06T01:26:42;4.18;;;3.78;;
26113;SDS011;13966;48.828;9.064;2023-08-06T01:31:41;6.47;;;4.22;;
26113;SDS011;13966;48.828;9.064;2023-08-06T01:34:09;4.90;;;4.32;;
26113;SDS011;13966;48.828;9.064;2023-08-06T01:36:36;5.50;;;3.83;;
26113;SDS011;13966;48.828;9.064;2023-08-06T01:39:02;9.30;;;4.53;;
26113;SDS011;13966;48.828;9.064;2023-08-06T01:41:30;6.38;;;4.57;;
26113;SDS011;13966;48.828;9.064;2023-08-06T01:43:56;6.03;;;4.20;;
26113;SDS011;13966;48.828;9.064;2023-08-06T01:46:22;4.57;;;3.80;;
26113;SDS011;13966;48.828;9.064;2023-08-06T01:48:48;5.07;;;3.65;;
26113;SDS011;13966;48.828;9.064;2023-08-06T01:51:14;5.07;;;3.65;;
26113;SDS011;13966;48.828;9.064;2023-08-06T01:53:40;6.93;;;4.07;;
26113;SDS011;13966;48.828;9.064;2023-08-06T01:56:06;5.82;;;3.22;;
26113;SDS011;13966;48.828;9.064;2023-08-06T01:58:32;6.18;;;3.00;;
26113;SDS011;13966;48.828;9.064;2023-08-06T02:00:58;6.75;;;3.20;;
26113;SDS011;13966;48.828;9.064;2023-08-06T02:03:24;6.70;;;3.17;;
26113;SDS011;13966;48.828;9.064;2023-08-06T02:05:50;4.50;;;3.15;;
26113;SDS011;13966;48.828;9.064;2023-08-06T02:08:16;5.43;;;3.38;;
26113;SDS011;13966;48.828;9.064;2023-08-06T02:10:42;6.78;;;2.97;;
26113;SDS011;13966;48.828;9.064;2023-08-06T02:13:08;4.45;;;3.05;;
26113;SDS011;13966;48.828;9.064;2023-08-06T02:15:34;6.72;;;2.97;;
26113;SDS011;13966;48.828;9.064;2023-08-06T02:18:00;4.53;;;2.85;;
26113;SDS011;13966;48.828;9.064;2023-08-06T02:20:26;4.18;;;2.50;;
26113;SDS011;13966;48.828;9.064;2023-08-06T02:22:52;6.38;;;2.78;;
26113;SDS011;13966;48.828;9.064;2023-08-06T02:25:17;3.50;;;3.08;;
26113;SDS011;13966;48.828;9.064;2023-08-06T02:27:43;4.68;;;2.65;;
26113;SDS011;13966;48.828;9.064;2023-08-06T02:30:09;5.53;;;2.67;;
26113;SDS011;13966;48.828;9.064;2023-08-06T02:32:35;4.13;;;2.50;;
26113;SDS011;13966;48.828;9.064;2023-08-06T02:35:01;4.13;;;2.85;;
26113;SDS011;13966;48.828;9.064;2023-08-06T02:37:27;6.80;;;2.90;;
26113;SDS011;13966;48.828;9.064;2023-08-06T02:39:53;4.85;;;2.95;;
26113;SDS011;13966;48.828;9.064;2023-08-06T02:42:19;5.32;;;2.72;;
26113;SDS011;13966;48.828;9.064;2023-08-06T02:44:45;5.85;;;2.85;;
26113;SDS011;13966;48.828;9.064;2023-08-06T02:47:11;4.25;;;2.60;;
26113;SDS011;13966;48.828;9.064;2023-08-06T02:49:37;6.75;;;3.10;;
26113;SDS011;13966;48.828;9.064;2023-08-06T02:52:03;6.57;;;2.97;;
26113;SDS011;13966;48.828;9.064;2023-08-06T02:54:29;6.80;;;2.88;;
26113;SDS011;13966;48.828;9.064;2023-08-06T02:56:56;5.15;;;2.70;;
26113;SDS011;13966;48.828;9.064;2023-08-06T02:59:22;7.20;;;2.90;;
26113;SDS011;13966;48.828;9.064;2023-08-06T03:01:48;4.00;;;2.97;;
26113;SDS011;13966;48.828;9.064;2023-08-06T03:04:14;3.75;;;2.58;;
26113;SDS011;13966;48.828;9.064;2023-08-06T03:06:40;4.18;;;2.38;;
26113;SDS011;13966;48.828;9.064;2023-08-06T03:09:06;3.92;;;2.33;;
26113;SDS011;13966;48.828;9.064;2023-08-06T03:11:32;6.90;;;2.83;;
26113;SDS011;13966;48.828;9.064;2023-08-06T03:13:57;3.47;;;2.35;;
26113;SDS011;13966;48.828;9.064;2023-08-06T03:16:24;4.57;;;2.60;;
26113;SDS011;13966;48.828;9.064;2023-08-06T03:18:50;3.95;;;2.45;;
26113;SDS011;13966;48.828;9.064;2023-08-06T03:21:16;2.88;;;2.10;;
26113;SDS011;13966;48.828;9.064;2023-08-06T03:23:42;4.35;;;2.10;;
26113;SDS011;13966;48.828;9.064;2023-08-06T03:26:08;3.72;;;2.20;;
26113;SDS011;13966;48.828;9.064;2023-08-06T03:28:34;3.70;;;2.03;;
26113;SDS011;13966;48.828;9.064;2023-08-06T03:31:03;4.72;;;2.38;;
26113;SDS011;13966;48.828;9.064;2023-08-06T03:33:29;5.85;;;2.53;;
26113;SDS011;13966;48.828;9.064;2023-08-06T03:35:55;2.90;;;2.30;;
26113;SDS011;13966;48.828;9.064;2023-08-06T03:38:21;3.72;;;2.60;;
26113;SDS011;13966;48.828;9.064;2023-08-06T03:40:50;4.03;;;2.60;;
26113;SDS011;13966;48.828;9.064;2023-08-06T03:43:16;5.07;;;2.45;;
26113;SDS011;13966;48.828;9.064;2023-08-06T03:45:42;5.97;;;2.72;;
26113;SDS011;13966;48.828;9.064;2023-08-06T03:48:08;3.53;;;2.25;;
26113;SDS011;13966;48.828;9.064;2023-08-06T03:50:34;4.63;;;2.40;;
26113;SDS011;13966;48.828;9.064;2023-08-06T03:53:00;3.15;;;2.50;;
26113;SDS011;13966;48.828;9.064;2023-08-06T03:55:26;5.30;;;2.40;;
26113;SDS011;13966;48.828;9.064;2023-08-06T03:57:52;4.38;;;2.45;;
26113;SDS011;13966;48.828;9.064;2023-08-06T04:00:18;3.20;;;2.40;;
26113;SDS011;13966;48.828;9.064;2023-08-06T04:02:45;4.32;;;2.75;;
26113;SDS011;13966;48.828;9.064;2023-08-06T04:05:11;6.35;;;2.47;;
26113;SDS011;13966;48.828;9.064;2023-08-06T04:07:37;5.20;;;2.30;;
26113;SDS011;13966;48.828;9.064;2023-08-06T04:10:03;7.32;;;2.63;;
26113;SDS011;13966;48.828;9.064;2023-08-06T04:12:30;4.70;;;2.58;;
26113;SDS011;13966;48.828;9.064;2023-08-06T04:14:58;4.45;;;2.70;;
26113;SDS011;13966;48.828;9.064;2023-08-06T04:17:24;7.10;;;2.65;;
26113;SDS011;13966;48.828;9.064;2023-08-06T04:19:51;3.28;;;2.25;;
26113;SDS011;13966;48.828;9.064;2023-08-06T04:22:17;4.45;;;2.55;;
26113;SDS011;13966;48.828;9.064;2023-08-06T04:24:44;4.90;;;2.63;;
26113;SDS011;13966;48.828;9.064;2023-08-06T04:27:10;4.28;;;2.35;;
26113;SDS011;13966;48.828;9.064;2023-08-06T04:29:36;2.75;;;2.30;;
26113;SDS011;13966;48.828;9.064;2023-08-06T04:32:06;8.27;;;2.33;;
26113;SDS011;13966;48.828;9.064;2023-08-06T04:34:33;4.72;;;2.60;;
26113;SDS011;13966;48.828;9.064;2023-08-06T04:36:59;4.70;;;2.40;;
26113;SDS011;13966;48.828;9.064;2023-08-06T04:39:25;4.07;;;2.30;;
26113;SDS011;13966;48.828;9.064;2023-08-06T04:41:51;7.50;;;2.75;;
26113;SDS011;13966;48.828;9.064;2023-08-06T04:44:17;5.78;;;2.45;;
26113;SDS011;13966;48.828;9.064;2023-08-06T04:46:43;4.00;;;2.15;;
26113;SDS011;13966;48.828;9.064;2023-08-06T04:49:09;7.28;;;2.47;;
26113;SDS011;13966;48.828;9.064;2023-08-06T04:51:35;4.18;;;2.17;;
26113;SDS011;13966;48.828;9.064;2023-08-06T04:54:01;5.20;;;2.40;;
26113;SDS011;13966;48.828;9.064;2023-08-06T04:56:27;6.72;;;2.20;;
26113;SDS011;13966;48.828;9.064;2023-08-06T04:58:53;4.00;;;2.45;;
26113;SDS011;13966;48.828;9.064;2023-08-06T05:01:19;3.08;;;2.30;;
26113;SDS011;13966;48.828;9.064;2023-08-06T05:03:46;7.55;;;2.40;;
26113;SDS011;13966;48.828;9.064;2023-08-06T05:06:12;4.55;;;2.50;;
26113;SDS011;13966;48.828;9.064;2023-08-06T05:08:38;4.55;;;2.40;;
26113;SDS011;13966;48.828;9.064;2023-08-06T05:11:04;3.50;;;2.15;;
26113;SDS011;13966;48.828;9.064;2023-08-06T05:13:30;2.20;;;1.73;;
26113;SDS011;13966;48.828;9.064;2023-08-06T05:15:56;3.50;;;1.80;;
26113;SDS011;13966;48.828;9.064;2023-08-06T05:18:22;3.42;;;1.80;;
26113;SDS011;13966;48.828;9.064;2023-08-06T05:20:48;3.08;;;1.60;;
26113;SDS011;13966;48.828;9.064;2023-08-06T05:23:14;4.57;;;1.52;;
26113;SDS011;13966;48.828;9.064;2023-08-06T05:25:40;2.72;;;1.55;;
26113;SDS011;13966;48.828;9.064;2023-08-06T05:28:06;2.58;;;1.52;;
26113;SDS011;13966;48.828;9.064;2023-08-06T05:30:32;2.10;;;1.60;;
26113;SDS011;13966;48.828;9.064;2023-08-06T05:32:58;2.97;;;1.95;;
26113;SDS011;13966;48.828;9.064;2023-08-06T05:35:24;2.03;;;1.20;;
26113;SDS011;13966;48.828;9.064;2023-08-06T05:37:50;1.92;;;1.27;;
26113;SDS011;13966;48.828;9.064;2023-08-06T05:40:16;2.53;;;1.30;;
26113;SDS011;13966;48.828;9.064;2023-08-06T05:42:42;3.35;;;1.30;;
26113;SDS011;13966;48.828;9.064;2023-08-06T05:45:08;2.35;;;1.30;;
26113;SDS011;13966;48.828;9.064;2023-08-06T05:47:35;3.00;;;1.10;;
26113;SDS011;13966;48.828;9.064;2023-08-06T05:50:01;2.95;;;1.10;;
26113;SDS011;13966;48.828;9.064;2023-08-06T05:52:27;2.42;;;1.17;;
26113;SDS011;13966;48.828;9.064;2023-08-06T05:54:53;2.78;;;1.13;;
26113;SDS011;13966;48.828;9.064;2023-08-06T05:57:20;1.05;;;0.88;;
26113;SDS011;13966;48.828;9.064;2023-08-06T05:59:46;1.23;;;0.70;;
26113;SDS011;13966;48.828;9.064;2023-08-06T06:02:12;2.78;;;0.95;;
26113;SDS011;13966;48.828;9.064;2023-08-06T06:04:38;1.98;;;0.80;;
26113;SDS011;13966;48.828;9.064;2023-08-06T06:07:04;2.92;;;0.90;;
26113;SDS011;13966;48.828;9.064;2023-08-06T06:09:30;2.22;;;0.80;;
26113;SDS011;13966;48.828;9.064;2023-08-06T06:11:56;2.38;;;0.75;;
26113;SDS011;13966;48.828;9.064;2023-08-06T06:14:22;2.92;;;0.80;;
26113;SDS011;13966;48.828;9.064;2023-08-06T06:16:48;2.40;;;0.57;;
26113;SDS011;13966;48.828;9.064;2023-08-06T06:19:14;1.92;;;0.63;;
26113;SDS011;13966;48.828;9.064;2023-08-06T06:21:40;3.70;;;0.80;;
26113;SDS011;13966;48.828;9.064;2023-08-06T06:24:06;2.25;;;0.70;;
26113;SDS011;13966;48.828;9.064;2023-08-06T06:26:33;3.20;;;0.70;;
26113;SDS011;13966;48.828;9.064;2023-08-06T06:28:59;1.17;;;0.57;;
26113;SDS011;13966;48.828;9.064;2023-08-06T06:31:25;4.15;;;0.65;;
26113;SDS011;13966;48.828;9.064;2023-08-06T06:33:51;2.33;;;0.80;;
26113;SDS011;13966;48.828;9.064;2023-08-06T06:36:19;1.67;;;0.60;;
26113;SDS011;13966;48.828;9.064;2023-08-06T06:38:45;3.70;;;0.80;;
26113;SDS011;13966;48.828;9.064;2023-08-06T06:41:11;2.47;;;0.65;;
26113;SDS011;13966;48.828;9.064;2023-08-06T06:43:37;1.50;;;0.50;;
26113;SDS011;13966;48.828;9.064;2023-08-06T06:46:04;1.73;;;0.35;;
26113;SDS011;13966;48.828;9.064;2023-08-06T06:48:32;1.35;;;0.43;;
26113;SDS011;13966;48.828;9.064;2023-08-06T06:50:58;0.50;;;0.40;;
26113;SDS011;13966;48.828;9.064;2023-08-06T06:53:24;0.95;;;0.40;;
26113;SDS011;13966;48.828;9.064;2023-08-06T06:56:00;1.75;;;0.35;;
26113;SDS011;13966;48.828;9.064;2023-08-06T06:58:27;0.63;;;0.43;;
26113;SDS011;13966;48.828;9.064;2023-08-06T07:00:53;2.08;;;0.30;;
26113;SDS011;13966;48.828;9.064;2023-08-06T07:03:22;2.92;;;0.17;;
26113;SDS011;13966;48.828;9.064;2023-08-06T07:05:48;1.10;;;0.35;;
26113;SDS011;13966;48.828;9.064;2023-08-06T07:08:15;1.45;;;0.55;;
26113;SDS011;13966;48.828;9.064;2023-08-06T07:10:41;3.00;;;0.50;;
26113;SDS011;13966;48.828;9.064;2023-08-06T07:13:07;0.70;;;0.35;;
26113;SDS011;13966;48.828;9.064;2023-08-06T07:15:33;0.52;;;0.32;;
26113;SDS011;13966;48.828;9.064;2023-08-06T07:17:59;0.85;;;0.28;;
26113;SDS011;13966;48.828;9.064;2023-08-06T07:20:25;2.38;;;0.50;;
26113;SDS011;13966;48.828;9.064;2023-08-06T07:22:54;0.35;;;0.30;;
26113;SDS011;13966;48.828;9.064;2023-08-06T07:25:20;1.38;;;0.40;;
26113;SDS011;13966;48.828;9.064;2023-08-06T07:27:46;0.30;;;0.20;;
26113;SDS011;13966;48.828;9.064;2023-08-06T07:30:12;1.98;;;0.38;;
26113;SDS011;13966;48.828;9.064;2023-08-06T07:32:38;0.80;;;0.30;;
26113;SDS011;13966;48.828;9.064;2023-08-06T07:35:04;2.58;;;0.40;;
26113;SDS011;13966;48.828;9.064;2023-08-06T07:37:30;0.95;;;0.45;;
26113;SDS011;13966;48.828;9.064;2023-08-06T07:39:57;0.60;;;0.30;;
26113;SDS011;13966;48.828;9.064;2023-08-06T07:42:23;0.45;;;0.20;;
26113;SDS011;13966;48.828;9.064;2023-08-06T07:44:51;0.47;;;0.25;;
26113;SDS011;13966;48.828;9.064;2023-08-06T07:47:17;1.33;;;0.50;;
26113;SDS011;13966;48.828;9.064;2023-08-06T07:49:44;1.38;;;0.40;;
26113;SDS011;13966;48.828;9.064;2023-08-06T07:52:10;1.38;;;0.40;;
26113;SDS011;13966;48.828;9.064;2023-08-06T07:54:36;1.75;;;0.40;;
26113;SDS011;13966;48.828;9.064;2023-08-06T07:57:02;2.13;;;0.30;;
26113;SDS011;13966;48.828;9.064;2023-08-06T07:59:28;2.30;;;0.38;;
26113;SDS011;13966;48.828;9.064;2023-08-06T08:01:54;1.45;;;0.20;;
26113;SDS011;13966;48.828;9.064;2023-08-06T08:04:20;1.65;;;0.20;;
26113;SDS011;13966;48.828;9.064;2023-08-06T08:06:46;0.95;;;0.22;;
26113;SDS011;13966;48.828;9.064;2023-08-06T08:09:12;0.50;;;0.20;;
26113;SDS011;13966;48.828;9.064;2023-08-06T08:11:39;1.00;;;0.15;;
26113;SDS011;13966;48.828;9.064;2023-08-06T08:14:05;0.45;;;0.22;;
26113;SDS011;13966;48.828;9.064;2023-08-06T08:16:31;0.10;;;0.10;;
26113;SDS011;13966;48.828;9.064;2023-08-06T08:18:57;0.82;;;0.40;;
26113;SDS011;13966;48.828;9.064;2023-08-06T08:21:23;0.85;;;0.10;;
26113;SDS011;13966;48.828;9.064;2023-08-06T08:23:50;1.38;;;0.20;;
26113;SDS011;13966;48.828;9.064;2023-08-06T08:26:16;1.52;;;0.20;;
26113;SDS011;13966;48.828;9.064;2023-08-06T08:28:42;0.45;;;0.00;;
26113;SDS011;13966;48.828;9.064;2023-08-06T08:31:08;1.55;;;0.20;;
26113;SDS011;13966;48.828;9.064;2023-08-06T08:33:34;0.32;;;0.10;;
26113;SDS011;13966;48.828;9.064;2023-08-06T08:36:00;0.60;;;0.22;;
26113;SDS011;13966;48.828;9.064;2023-08-06T08:38:26;0.65;;;0.10;;
26113;SDS011;13966;48.828;9.064;2023-08-06T08:40:53;0.10;;;0.10;;
26113;SDS011;13966;48.828;9.064;2023-08-06T08:43:23;0.95;;;0.10;;
26113;SDS011;13966;48.828;9.064;2023-08-06T08:45:50;0.50;;;0.10;;
26113;SDS011;13966;48.828;9.064;2023-08-06T08:48:16;2.40;;;0.22;;
26113;SDS011;13966;48.828;9.064;2023-08-06T08:50:44;2.00;;;0.30;;
26113;SDS011;13966;48.828;9.064;2023-08-06T08:53:11;0.35;;;0.10;;
26113;SDS011;13966;48.828;9.064;2023-08-06T08:55:38;0.10;;;0.10;;
26113;SDS011;13966;48.828;9.064;2023-08-06T08:58:05;0.10;;;0.10;;
26113;SDS011;13966;48.828;9.064;2023-08-06T09:00:31;0.70;;;0.10;;
26113;SDS011;13966;48.828;9.064;2023-08-06T09:02:57;0.38;;;0.20;;
26113;SDS011;13966;48.828;9.064;2023-08-06T09:05:25;0.65;;;0.10;;
26113;SDS011;13966;48.828;9.064;2023-08-06T09:07:53;0.25;;;0.25;;
26113;SDS011;13966;48.828;9.064;2023-08-06T09:10:19;0.90;;;0.00;;
26113;SDS011;13966;48.828;9.064;2023-08-06T09:12:51;1.08;;;0.10;;
26113;SDS011;13966;48.828;9.064;2023-08-06T09:15:17;0.10;;;0.00;;
26113;SDS011;13966;48.828;9.064;2023-08-06T09:17:44;0.35;;;0.22;;
26113;SDS011;13966;48.828;9.064;2023-08-06T09:20:10;0.20;;;0.20;;
26113;SDS011;13966;48.828;9.064;2023-08-06T09:22:36;0.65;;;0.20;;
26113;SDS011;13966;48.828;9.064;2023-08-06T09:25:03;0.30;;;0.20;;
26113;SDS011;13966;48.828;9.064;2023-08-06T09:27:34;0.57;;;0.17;;
26113;SDS011;13966;48.828;9.064;2023-08-06T09:30:00;0.52;;;0.30;;
26113;SDS011;13966;48.828;9.064;2023-08-06T09:32:27;0.10;;;0.10;;
26113;SDS011;13966;48.828;9.064;2023-08-06T09:34:56;0.35;;;0.10;;
26113;SDS011;13966;48.828;9.064;2023-08-06T09:37:22;0.38;;;0.15;;
26113;SDS011;13966;48.828;9.064;2023-08-06T09:39:48;0.40;;;0.10;;
26113;SDS011;13966;48.828;9.064;2023-08-06T09:42:16;0.57;;;0.30;;
26113;SDS011;13966;48.828;9.064;2023-08-06T09:44:42;0.43;;;0.30;;
26113;SDS011;13966;48.828;9.064;2023-08-06T09:47:08;1.17;;;0.40;;
26113;SDS011;13966;48.828;9.064;2023-08-06T09:52:00;0.20;;;0.20;;
26113;SDS011;13966;48.828;9.064;2023-08-06T09:54:27;0.20;;;0.20;;
26113;SDS011;13966;48.828;9.064;2023-08-06T09:56:55;0.63;;;0.30;;
26113;SDS011;13966;48.828;9.064;2023-08-06T09:59:24;0.52;;;0.20;;
26113;SDS011;13966;48.828;9.064;2023-08-06T10:01:50;0.17;;;0.10;;
26113;SDS011;13966;48.828;9.064;2023-08-06T10:04:16;0.40;;;0.10;;
26113;SDS011;13966;48.828;9.064;2023-08-06T10:06:43;0.17;;;0.08;;
26113;SDS011;13966;48.828;9.064;2023-08-06T10:09:12;0.17;;;0.17;;
26113;SDS011;13966;48.828;9.064;2023-08-06T10:11:38;0.05;;;0.05;;
26113;SDS011;13966;48.828;9.064;2023-08-06T10:14:14;2.10;;;0.13;;
26113;SDS011;13966;48.828;9.064;2023-08-06T10:16:42;0.22;;;0.10;;
26113;SDS011;13966;48.828;9.064;2023-08-06T10:19:09;0.22;;;0.15;;
26113;SDS011;13966;48.828;9.064;2023-08-06T10:21:35;2.50;;;0.10;;
26113;SDS011;13966;48.828;9.064;2023-08-06T10:24:03;0.70;;;0.10;;
26113;SDS011;13966;48.828;9.064;2023-08-06T10:26:34;0.10;;;0.10;;
26113;SDS011;13966;48.828;9.064;2023-08-06T10:29:00;0.30;;;0.10;;
26113;SDS011;13966;48.828;9.064;2023-08-06T10:34:11;0.20;;;0.10;;
26113;SDS011;13966;48.828;9.064;2023-08-06T10:36:37;0.15;;;0.10;;
26113;SDS011;13966;48.828;9.064;2023-08-06T10:39:04;0.40;;;0.20;;
26113;SDS011;13966;48.828;9.064;2023-08-06T10:41:30;0.30;;;0.10;;
26113;SDS011;13966;48.828;9.064;2023-08-06T10:44:05;0.10;;;0.00;;
26113;SDS011;13966;48.828;9.064;2023-08-06T10:46:34;0.10;;;0.00;;
26113;SDS011;13966;48.828;9.064;2023-08-06T10:49:01;0.20;;;0.17;;
26113;SDS011;13966;48.828;9.064;2023-08-06T10:51:27;0.10;;;0.10;;
26113;SDS011;13966;48.828;9.064;2023-08-06T10:53:53;0.10;;;0.10;;
26113;SDS011;13966;48.828;9.064;2023-08-06T10:56:20;1.05;;;0.30;;
26113;SDS011;13966;48.828;9.064;2023-08-06T11:01:16;2.92;;;1.02;;
26113;SDS011;13966;48.828;9.064;2023-08-06T11:03:43;0.47;;;0.38;;
26113;SDS011;13966;48.828;9.064;2023-08-06T11:06:09;0.47;;;0.38;;
26113;SDS011;13966;48.828;9.064;2023-08-06T11:08:36;0.52;;;0.40;;
26113;SDS011;13966;48.828;9.064;2023-08-06T11:11:12;0.52;;;0.40;;
26113;SDS011;13966;48.828;9.064;2023-08-06T11:13:39;1.75;;;0.50;;
26113;SDS011;13966;48.828;9.064;2023-08-06T11:16:05;0.82;;;0.40;;
26113;SDS011;13966;48.828;9.064;2023-08-06T11:18:32;2.33;;;0.70;;
26113;SDS011;13966;48.828;9.064;2023-08-06T11:20:59;1.85;;;0.60;;
26113;SDS011;13966;48.828;9.064;2023-08-06T11:23:26;1.27;;;0.43;;
26113;SDS011;13966;48.828;9.064;2023-08-06T11:25:53;0.77;;;0.63;;
26113;SDS011;13966;48.828;9.064;2023-08-06T11:28:19;0.80;;;0.60;;
26113;SDS011;13966;48.828;9.064;2023-08-06T11:30:49;0.90;;;0.50;;
26113;SDS011;13966;48.828;9.064;2023-08-06T11:33:25;1.42;;;0.73;;
26113;SDS011;13966;48.828;9.064;2023-08-06T11:35:52;0.52;;;0.52;;
26113;SDS011;13966;48.828;9.064;2023-08-06T11:38:18;3.75;;;1.05;;
26113;SDS011;13966;48.828;9.064;2023-08-06T11:40:44;1.30;;;0.93;;
26113;SDS011;13966;48.828;9.064;2023-08-06T11:43:12;1.60;;;1.00;;
26113;SDS011;13966;48.828;9.064;2023-08-06T11:45:38;1.30;;;0.80;;
26113;SDS011;13966;48.828;9.064;2023-08-06T11:48:04;3.30;;;0.90;;
26113;SDS011;13966;48.828;9.064;2023-08-06T11:50:30;1.83;;;1.02;;
26113;SDS011;13966;48.828;9.064;2023-08-06T11:52:59;2.20;;;0.93;;
26113;SDS011;13966;48.828;9.064;2023-08-06T11:55:25;3.67;;;1.20;;
26113;SDS011;13966;48.828;9.064;2023-08-06T11:57:51;2.38;;;1.35;;
26113;SDS011;13966;48.828;9.064;2023-08-06T12:00:17;2.13;;;1.30;;
26113;SDS011;13966;48.828;9.064;2023-08-06T12:02:48;4.15;;;1.40;;
26113;SDS011;13966;48.828;9.064;2023-08-06T12:07:42;4.00;;;1.30;;
26113;SDS011;13966;48.828;9.064;2023-08-06T12:10:08;2.35;;;1.52;;
26113;SDS011;13966;48.828;9.064;2023-08-06T12:12:34;2.67;;;1.48;;
26113;SDS011;13966;48.828;9.064;2023-08-06T12:15:01;3.13;;;1.45;;
26113;SDS011;13966;48.828;9.064;2023-08-06T12:17:27;2.92;;;1.52;;
26113;SDS011;13966;48.828;9.064;2023-08-06T12:19:53;4.38;;;1.60;;
26113;SDS011;13966;48.828;9.064;2023-08-06T12:22:19;1.52;;;1.30;;
26113;SDS011;13966;48.828;9.064;2023-08-06T12:24:46;3.47;;;1.55;;
26113;SDS011;13966;48.828;9.064;2023-08-06T12:27:12;2.03;;;1.25;;
26113;SDS011;13966;48.828;9.064;2023-08-06T12:29:42;3.00;;;1.33;;
26113;SDS011;13966;48.828;9.064;2023-08-06T12:32:09;3.38;;;1.55;;
26113;SDS011;13966;48.828;9.064;2023-08-06T12:34:35;3.50;;;1.58;;
26113;SDS011;13966;48.828;9.064;2023-08-06T12:37:01;2.65;;;1.30;;
26113;SDS011;13966;48.828;9.064;2023-08-06T12:39:28;1.70;;;1.10;;
26113;SDS011;13966;48.828;9.064;2023-08-06T12:41:55;2.47;;;0.95;;
26113;SDS011;13966;48.828;9.064;2023-08-06T12:44:22;1.95;;;1.08;;
26113;SDS011;13966;48.828;9.064;2023-08-06T12:46:48;1.63;;;0.95;;
26113;SDS011;13966;48.828;9.064;2023-08-06T12:49:14;1.35;;;0.90;;
26113;SDS011;13966;48.828;9.064;2023-08-06T12:51:40;1.52;;;0.65;;
26113;SDS011;13966;48.828;9.064;2023-08-06T12:54:06;2.63;;;1.08;;
26113;SDS011;13966;48.828;9.064;2023-08-06T12:56:32;1.60;;;0.70;;
26113;SDS011;13966;48.828;9.064;2023-08-06T12:58:58;0.85;;;0.70;;
26113;SDS011;13966;48.828;9.064;2023-08-06T13:01:24;1.73;;;0.80;;
26113;SDS011;13966;48.828;9.064;2023-08-06T13:03:50;1.17;;;0.80;;
26113;SDS011;13966;48.828;9.064;2023-08-06T13:06:16;1.42;;;0.70;;
26113;SDS011;13966;48.828;9.064;2023-08-06T13:08:42;1.40;;;1.00;;
26113;SDS011;13966;48.828;9.064;2023-08-06T13:11:08;1.15;;;0.77;;
26113;SDS011;13966;48.828;9.064;2023-08-06T13:13:33;1.38;;;0.93;;
26113;SDS011;13966;48.828;9.064;2023-08-06T13:15:59;2.00;;;0.82;;
26113;SDS011;13966;48.828;9.064;2023-08-06T13:18:25;2.33;;;0.85;;
26113;SDS011;13966;48.828;9.064;2023-08-06T13:20:55;2.20;;;0.70;;
26113;SDS011;13966;48.828;9.064;2023-08-06T13:23:21;2.10;;;0.70;;
26113;SDS011;13966;48.828;9.064;2023-08-06T13:25:47;1.65;;;0.60;;
26113;SDS011;13966;48.828;9.064;2023-08-06T13:28:13;2.75;;;0.70;;
26113;SDS011;13966;48.828;9.064;2023-08-06T13:30:39;1.90;;;0.50;;
26113;SDS011;13966;48.828;9.064;2023-08-06T13:33:09;0.63;;;0.50;;
26113;SDS011;13966;48.828;9.064;2023-08-06T13:35:35;0.47;;;0.47;;
26113;SDS011;13966;48.828;9.064;2023-08-06T13:38:01;0.35;;;0.32;;
26113;SDS011;13966;48.828;9.064;2023-08-06T13:40:32;2.38;;;0.70;;
26113;SDS011;13966;48.828;9.064;2023-08-06T13:42:58;0.90;;;0.40;;
26113;SDS011;13966;48.828;9.064;2023-08-06T13:45:24;4.20;;;0.73;;
26113;SDS011;13966;48.828;9.064;2023-08-06T13:47:50;0.88;;;0.47;;
26113;SDS011;13966;48.828;9.064;2023-08-06T13:50:16;0.68;;;0.45;;
26113;SDS011;13966;48.828;9.064;2023-08-06T13:52:42;0.80;;;0.47;;
26113;SDS011;13966;48.828;9.064;2023-08-06T13:55:08;0.52;;;0.45;;
26113;SDS011;13966;48.828;9.064;2023-08-06T13:57:34;0.88;;;0.45;;
26113;SDS011;13966;48.828;9.064;2023-08-06T14:00:01;0.90;;;0.50;;
26113;SDS011;13966;48.828;9.064;2023-08-06T14:02:27;0.77;;;0.40;;
26113;SDS011;13966;48.828;9.064;2023-08-06T14:04:53;0.55;;;0.45;;
26113;SDS011;13966;48.828;9.064;2023-08-06T14:07:19;4.47;;;0.75;;
26113;SDS011;13966;48.828;9.064;2023-08-06T14:09:45;0.88;;;0.60;;
26113;SDS011;13966;48.828;9.064;2023-08-06T14:12:12;1.27;;;0.63;;
26113;SDS011;13966;48.828;9.064;2023-08-06T14:14:38;1.83;;;0.57;;
26113;SDS011;13966;48.828;9.064;2023-08-06T14:17:04;2.55;;;0.60;;
26113;SDS011;13966;48.828;9.064;2023-08-06T14:19:30;1.33;;;0.60;;
26113;SDS011;13966;48.828;9.064;2023-08-06T14:21:56;6.70;;;0.70;;
26113;SDS011;13966;48.828;9.064;2023-08-06T14:24:22;2.20;;;0.77;;
26113;SDS011;13966;48.828;9.064;2023-08-06T14:26:48;1.20;;;0.70;;
26113;SDS011;13966;48.828;9.064;2023-08-06T14:29:14;3.05;;;0.70;;
26113;SDS011;13966;48.828;9.064;2023-08-06T14:31:41;1.83;;;0.65;;
26113;SDS011;13966;48.828;9.064;2023-08-06T14:34:07;1.00;;;0.52;;
26113;SDS011;13966;48.828;9.064;2023-08-06T14:36:33;3.15;;;0.60;;
26113;SDS011;13966;48.828;9.064;2023-08-06T14:38:59;3.33;;;0.50;;
26113;SDS011;13966;48.828;9.064;2023-08-06T14:41:25;0.47;;;0.47;;
26113;SDS011;13966;48.828;9.064;2023-08-06T14:43:51;1.00;;;0.60;;
26113;SDS011;13966;48.828;9.064;2023-08-06T14:46:17;1.35;;;0.50;;
26113;SDS011;13966;48.828;9.064;2023-08-06T14:48:43;2.67;;;0.80;;
26113;SDS011;13966;48.828;9.064;2023-08-06T14:51:09;0.60;;;0.60;;
26113;SDS011;13966;48.828;9.064;2023-08-06T14:53:34;1.42;;;0.52;;
26113;SDS011;13966;48.828;9.064;2023-08-06T14:56:01;0.40;;;0.40;;
26113;SDS011;13966;48.828;9.064;2023-08-06T14:58:27;1.23;;;0.70;;